sensor_id;sensor_type;location;lat;lon;timestamp;pressure;altitude;pressure_sealevel;temperature;humidity
34177;BME280;20450;49.074;9.158;2024-02-23T00:02:25;97749.53;;;9.58;68.77
34177;BME280;20450;49.074;9.158;2024-02-23T00:04:52;97763.50;;;9.55;68.41
34177;BME280;20450;49.074;9.158;2024-02-23T00:07:19;97765.13;;;9.56;68.68
34177;BME280;20450;49.074;9.158;2024-02-23T00:09:46;97764.03;;;9.57;68.53
34177;BME280;20450;49.074;9.158;2024-02-23T00:12:15;97773.78;;;9.58;67.82
34177;BME280;20450;49.074;9.158;2024-02-23T00:14:42;97777.78;;;9.55;69.15
34177;BME280;20450;49.074;9.158;2024-02-23T00:17:09;97787.53;;;9.61;68.85
34177;BME280;20450;49.074;9.158;2024-02-23T00:19:37;97786.13;;;9.54;68.18
34177;BME280;20450;49.074;9.158;2024-02-23T00:22:04;97774.72;;;9.47;68.10
34177;BME280;20450;49.074;9.158;2024-02-23T00:24:34;97775.56;;;9.47;67.39
34177;BME280;20450;49.074;9.158;2024-02-23T00:27:01;97788.78;;;9.49;66.69
34177;BME280;20450;49.074;9.158;2024-02-23T00:29:31;97787.19;;;9.53;67.26
34177;BME280;20450;49.074;9.158;2024-02-23T00:31:58;97787.09;;;9.43;66.34
34177;BME280;20450;49.074;9.158;2024-02-23T00:34:28;97780.88;;;9.42;66.74
34177;BME280;20450;49.074;9.158;2024-02-23T00:36:56;97796.19;;;9.37;66.54
34177;BME280;20450;49.074;9.158;2024-02-23T00:39:23;97792.97;;;9.40;65.47
34177;BME280;20450;49.074;9.158;2024-02-23T00:41:53;97798.81;;;9.32;65.01
34177;BME280;20450;49.074;9.158;2024-02-23T00:44:20;97802.69;;;9.41;65.44
34177;BME280;20450;49.074;9.158;2024-02-23T00:46:48;97811.38;;;9.48;65.26
34177;BME280;20450;49.074;9.158;2024-02-23T00:49:15;97813.47;;;9.41;64.00
34177;BME280;20450;49.074;9.158;2024-02-23T00:51:43;97814.31;;;9.46;64.27
34177;BME280;20450;49.074;9.158;2024-02-23T00:54:10;97813.53;;;9.46;64.06
34177;BME280;20450;49.074;9.158;2024-02-23T00:56:36;97828.63;;;9.47;63.55
34177;BME280;20450;49.074;9.158;2024-02-23T00:59:16;97815.59;;;9.39;64.57
34177;BME280;20450;49.074;9.158;2024-02-23T01:01:44;97818.25;;;9.34;64.06
34177;BME280;20450;49.074;9.158;2024-02-23T01:04:13;97831.25;;;9.42;63.91
34177;BME280;20450;49.074;9.158;2024-02-23T01:06:40;97843.56;;;9.33;64.55
34177;BME280;20450;49.074;9.158;2024-02-23T01:09:07;97849.81;;;9.38;64.53
34177;BME280;20450;49.074;9.158;2024-02-23T01:11:34;97854.06;;;9.34;64.55
34177;BME280;20450;49.074;9.158;2024-02-23T01:14:01;97840.78;;;9.28;64.65
34177;BME280;20450;49.074;9.158;2024-02-23T01:16:28;97838.72;;;9.35;65.14
34177;BME280;20450;49.074;9.158;2024-02-23T01:18:55;97862.78;;;9.03;64.38
34177;BME280;20450;49.074;9.158;2024-02-23T01:21:23;97833.25;;;9.08;65.12
34177;BME280;20450;49.074;9.158;2024-02-23T01:23:50;97827.63;;;9.10;64.16
34177;BME280;20450;49.074;9.158;2024-02-23T01:26:17;97834.09;;;9.09;64.13
34177;BME280;20450;49.074;9.158;2024-02-23T01:28:44;97828.03;;;9.02;64.35
34177;BME280;20450;49.074;9.158;2024-02-23T01:31:11;97821.66;;;9.08;64.65
34177;BME280;20450;49.074;9.158;2024-02-23T01:33:39;97828.88;;;9.02;63.62
34177;BME280;20450;49.074;9.158;2024-02-23T01:36:07;97852.69;;;9.10;64.10
34177;BME280;20450;49.074;9.158;2024-02-23T01:38:35;97848.09;;;9.11;64.12
34177;BME280;20450;49.074;9.158;2024-02-23T01:41:03;97860.06;;;8.98;63.54
34177;BME280;20450;49.074;9.158;2024-02-23T01:43:30;97854.47;;;9.05;62.85
34177;BME280;20450;49.074;9.158;2024-02-23T01:45:57;97857.59;;;8.97;62.44
34177;BME280;20450;49.074;9.158;2024-02-23T01:48:25;97873.66;;;9.08;62.41
34177;BME280;20450;49.074;9.158;2024-02-23T01:50:53;97869.25;;;9.02;62.62
34177;BME280;20450;49.074;9.158;2024-02-23T01:53:22;97871.63;;;8.99;61.67
34177;BME280;20450;49.074;9.158;2024-02-23T01:55:51;97869.63;;;8.89;62.52
34177;BME280;20450;49.074;9.158;2024-02-23T01:58:20;97878.97;;;9.03;62.99
34177;BME280;20450;49.074;9.158;2024-02-23T02:00:48;97871.94;;;9.02;62.20
34177;BME280;20450;49.074;9.158;2024-02-23T02:03:15;97874.25;;;8.94;62.42
34177;BME280;20450;49.074;9.158;2024-02-23T02:05:42;97873.03;;;9.01;62.08
34177;BME280;20450;49.074;9.158;2024-02-23T02:08:10;97882.06;;;9.12;61.99
34177;BME280;20450;49.074;9.158;2024-02-23T02:10:38;97881.72;;;9.08;62.20
34177;BME280;20450;49.074;9.158;2024-02-23T02:13:06;97878.72;;;9.05;62.47
34177;BME280;20450;49.074;9.158;2024-02-23T02:15:33;97889.59;;;8.93;62.23
34177;BME280;20450;49.074;9.158;2024-02-23T02:18:00;97896.94;;;8.98;62.86
34177;BME280;20450;49.074;9.158;2024-02-23T02:20:27;97902.41;;;9.03;62.66
34177;BME280;20450;49.074;9.158;2024-02-23T02:22:58;97902.41;;;9.03;62.84
34177;BME280;20450;49.074;9.158;2024-02-23T02:25:26;97906.00;;;8.92;63.04
34177;BME280;20450;49.074;9.158;2024-02-23T02:27:53;97915.53;;;8.99;63.11
34177;BME280;20450;49.074;9.158;2024-02-23T02:30:23;97904.78;;;8.83;64.03
34177;BME280;20450;49.074;9.158;2024-02-23T02:32:52;97906.72;;;8.71;63.62
34177;BME280;20450;49.074;9.158;2024-02-23T02:35:19;97902.28;;;8.76;62.75
34177;BME280;20450;49.074;9.158;2024-02-23T02:37:46;97913.09;;;8.81;62.46
34177;BME280;20450;49.074;9.158;2024-02-23T02:40:13;97909.59;;;8.81;62.08
34177;BME280;20450;49.074;9.158;2024-02-23T02:42:40;97927.28;;;8.77;62.29
34177;BME280;20450;49.074;9.158;2024-02-23T02:45:07;97906.81;;;8.76;62.72
34177;BME280;20450;49.074;9.158;2024-02-23T02:47:36;97909.03;;;8.79;61.93
34177;BME280;20450;49.074;9.158;2024-02-23T02:50:05;97904.13;;;8.76;62.10
34177;BME280;20450;49.074;9.158;2024-02-23T02:52:32;97904.28;;;8.86;61.25
34177;BME280;20450;49.074;9.158;2024-02-23T02:54:59;97910.16;;;8.83;61.24
34177;BME280;20450;49.074;9.158;2024-02-23T02:57:26;97910.50;;;8.70;61.30
34177;BME280;20450;49.074;9.158;2024-02-23T02:59:54;97895.22;;;8.75;61.37
34177;BME280;20450;49.074;9.158;2024-02-23T03:02:21;97905.75;;;8.77;62.13
34177;BME280;20450;49.074;9.158;2024-02-23T03:04:50;97912.94;;;8.88;61.92
34177;BME280;20450;49.074;9.158;2024-02-23T03:07:17;97911.06;;;8.72;62.89
34177;BME280;20450;49.074;9.158;2024-02-23T03:09:47;97927.28;;;8.77;62.62
34177;BME280;20450;49.074;9.158;2024-02-23T03:12:14;97920.13;;;8.82;63.49
34177;BME280;20450;49.074;9.158;2024-02-23T03:14:41;97914.66;;;8.94;62.68
34177;BME280;20450;49.074;9.158;2024-02-23T03:17:08;97916.66;;;8.87;63.50
34177;BME280;20450;49.074;9.158;2024-02-23T03:19:37;97916.63;;;8.82;62.75
34177;BME280;20450;49.074;9.158;2024-02-23T03:22:06;97915.00;;;8.81;63.14
34177;BME280;20450;49.074;9.158;2024-02-23T03:24:33;97905.59;;;8.83;62.32
34177;BME280;20450;49.074;9.158;2024-02-23T03:27:00;97913.81;;;8.93;62.85
34177;BME280;20450;49.074;9.158;2024-02-23T03:29:27;97911.72;;;8.95;62.91
34177;BME280;20450;49.074;9.158;2024-02-23T03:31:54;97902.91;;;9.00;62.18
34177;BME280;20450;49.074;9.158;2024-02-23T03:34:22;97908.28;;;9.00;61.91
34177;BME280;20450;49.074;9.158;2024-02-23T03:36:49;97906.88;;;8.97;62.78
34177;BME280;20450;49.074;9.158;2024-02-23T03:39:17;97909.06;;;9.00;62.63
34177;BME280;20450;49.074;9.158;2024-02-23T03:41:44;97921.91;;;8.77;62.36
34177;BME280;20450;49.074;9.158;2024-02-23T03:44:12;97913.50;;;8.90;62.70
34177;BME280;20450;49.074;9.158;2024-02-23T03:46:39;97908.53;;;8.98;62.10
34177;BME280;20450;49.074;9.158;2024-02-23T03:49:06;97910.16;;;8.99;61.98
34177;BME280;20450;49.074;9.158;2024-02-23T03:51:34;97900.34;;;8.93;61.75
34177;BME280;20450;49.074;9.158;2024-02-23T03:54:01;97925.09;;;8.90;61.27
34177;BME280;20450;49.074;9.158;2024-02-23T03:56:29;97932.13;;;8.75;62.21
34177;BME280;20450;49.074;9.158;2024-02-23T03:58:56;97922.41;;;8.74;61.29
34177;BME280;20450;49.074;9.158;2024-02-23T04:01:23;97938.06;;;8.77;60.33
34177;BME280;20450;49.074;9.158;2024-02-23T04:03:50;97944.59;;;8.81;60.24
34177;BME280;20450;49.074;9.158;2024-02-23T04:06:17;97949.66;;;8.77;60.37
34177;BME280;20450;49.074;9.158;2024-02-23T04:08:45;97956.03;;;8.88;60.70
34177;BME280;20450;49.074;9.158;2024-02-23T04:11:16;97962.03;;;8.95;60.31
34177;BME280;20450;49.074;9.158;2024-02-23T04:13:45;97954.16;;;8.44;59.72
34177;BME280;20450;49.074;9.158;2024-02-23T04:16:16;97947.41;;;8.41;61.13
34177;BME280;20450;49.074;9.158;2024-02-23T04:18:43;97945.72;;;8.52;60.65
34177;BME280;20450;49.074;9.158;2024-02-23T04:21:11;97946.69;;;8.46;59.45
34177;BME280;20450;49.074;9.158;2024-02-23T04:23:38;97952.22;;;8.56;58.55
34177;BME280;20450;49.074;9.158;2024-02-23T04:26:05;97957.13;;;8.59;59.15
34177;BME280;20450;49.074;9.158;2024-02-23T04:28:33;97950.84;;;8.53;58.90
34177;BME280;20450;49.074;9.158;2024-02-23T04:31:01;97944.41;;;8.54;58.88
34177;BME280;20450;49.074;9.158;2024-02-23T04:33:28;97951.25;;;8.62;59.26
34177;BME280;20450;49.074;9.158;2024-02-23T04:35:55;97947.19;;;8.59;59.72
34177;BME280;20450;49.074;9.158;2024-02-23T04:38:22;97946.06;;;8.72;59.54
34177;BME280;20450;49.074;9.158;2024-02-23T04:40:49;97931.53;;;8.73;59.76
34177;BME280;20450;49.074;9.158;2024-02-23T04:43:16;97935.91;;;8.46;60.06
34177;BME280;20450;49.074;9.158;2024-02-23T04:45:43;97936.00;;;8.34;59.83
34177;BME280;20450;49.074;9.158;2024-02-23T04:48:12;97948.69;;;8.11;59.83
34177;BME280;20450;49.074;9.158;2024-02-23T04:50:40;97947.28;;;8.08;58.69
34177;BME280;20450;49.074;9.158;2024-02-23T04:53:07;97943.50;;;8.21;59.55
34177;BME280;20450;49.074;9.158;2024-02-23T04:55:34;97950.31;;;7.83;61.68
34177;BME280;20450;49.074;9.158;2024-02-23T04:58:02;97944.75;;;8.01;62.16
34177;BME280;20450;49.074;9.158;2024-02-23T05:00:29;97936.50;;;8.20;62.01
34177;BME280;20450;49.074;9.158;2024-02-23T05:02:56;97939.19;;;7.91;62.93
34177;BME280;20450;49.074;9.158;2024-02-23T05:05:24;97937.22;;;7.87;63.70
34177;BME280;20450;49.074;9.158;2024-02-23T05:07:51;97939.28;;;7.96;63.91
34177;BME280;20450;49.074;9.158;2024-02-23T05:10:18;97935.44;;;8.21;63.93
34177;BME280;20450;49.074;9.158;2024-02-23T05:12:45;97926.44;;;8.27;63.39
34177;BME280;20450;49.074;9.158;2024-02-23T05:15:12;97932.56;;;8.39;63.09
34177;BME280;20450;49.074;9.158;2024-02-23T05:17:39;97926.88;;;8.52;63.07
34177;BME280;20450;49.074;9.158;2024-02-23T05:20:09;97935.56;;;7.86;60.81
34177;BME280;20450;49.074;9.158;2024-02-23T05:22:39;97924.75;;;8.09;61.00
34177;BME280;20450;49.074;9.158;2024-02-23T05:25:07;97930.44;;;8.13;59.72
34177;BME280;20450;49.074;9.158;2024-02-23T05:27:34;97944.19;;;8.28;60.36
34177;BME280;20450;49.074;9.158;2024-02-23T05:30:01;97947.00;;;8.33;60.03
34177;BME280;20450;49.074;9.158;2024-02-23T05:32:29;97935.34;;;8.44;59.58
34177;BME280;20450;49.074;9.158;2024-02-23T05:34:56;97935.44;;;8.49;59.55
34177;BME280;20450;49.074;9.158;2024-02-23T05:37:23;97946.34;;;8.42;59.32
34177;BME280;20450;49.074;9.158;2024-02-23T05:39:51;97948.75;;;8.55;59.11
34177;BME280;20450;49.074;9.158;2024-02-23T05:42:18;97952.91;;;8.63;58.96
34177;BME280;20450;49.074;9.158;2024-02-23T05:44:45;97952.56;;;8.59;57.85
34177;BME280;20450;49.074;9.158;2024-02-23T05:47:13;97962.13;;;8.67;58.15
34177;BME280;20450;49.074;9.158;2024-02-23T05:49:40;97958.13;;;8.69;58.48
34177;BME280;20450;49.074;9.158;2024-02-23T05:52:07;97959.28;;;8.73;58.35
34177;BME280;20450;49.074;9.158;2024-02-23T05:54:34;97964.91;;;8.72;58.02
34177;BME280;20450;49.074;9.158;2024-02-23T05:57:03;97959.59;;;8.77;57.66
34177;BME280;20450;49.074;9.158;2024-02-23T05:59:31;97958.63;;;8.83;58.17
34177;BME280;20450;49.074;9.158;2024-02-23T06:01:58;97960.28;;;8.84;57.73
34177;BME280;20450;49.074;9.158;2024-02-23T06:04:25;97954.88;;;8.84;57.93
34177;BME280;20450;49.074;9.158;2024-02-23T06:06:52;97966.63;;;8.61;56.34
34177;BME280;20450;49.074;9.158;2024-02-23T06:09:19;97972.59;;;8.35;57.64
34177;BME280;20450;49.074;9.158;2024-02-23T06:11:47;97963.00;;;7.99;58.90
34177;BME280;20450;49.074;9.158;2024-02-23T06:14:16;97973.84;;;7.76;59.35
34177;BME280;20450;49.074;9.158;2024-02-23T06:16:44;97970.94;;;7.55;59.83
34177;BME280;20450;49.074;9.158;2024-02-23T06:19:11;97972.91;;;7.59;59.90
34177;BME280;20450;49.074;9.158;2024-02-23T06:21:38;97976.56;;;7.42;59.16
34177;BME280;20450;49.074;9.158;2024-02-23T06:24:05;97982.84;;;7.47;61.37
34177;BME280;20450;49.074;9.158;2024-02-23T06:26:32;97983.47;;;7.26;62.58
34177;BME280;20450;49.074;9.158;2024-02-23T06:28:59;97985.56;;;7.13;64.96
34177;BME280;20450;49.074;9.158;2024-02-23T06:31:27;97994.66;;;7.12;63.17
34177;BME280;20450;49.074;9.158;2024-02-23T06:33:54;98006.09;;;7.07;64.23
34177;BME280;20450;49.074;9.158;2024-02-23T06:36:21;98006.81;;;7.14;63.78
34177;BME280;20450;49.074;9.158;2024-02-23T06:38:49;97994.53;;;6.95;63.68
34177;BME280;20450;49.074;9.158;2024-02-23T06:41:17;98003.28;;;7.02;63.53
34177;BME280;20450;49.074;9.158;2024-02-23T06:43:44;98010.78;;;7.00;62.71
34177;BME280;20450;49.074;9.158;2024-02-23T06:46:11;98021.97;;;6.97;63.44
34177;BME280;20450;49.074;9.158;2024-02-23T06:48:40;98017.53;;;6.91;64.35
34177;BME280;20450;49.074;9.158;2024-02-23T06:51:07;98011.56;;;7.01;63.82
34177;BME280;20450;49.074;9.158;2024-02-23T06:53:34;98014.38;;;6.94;64.18
34177;BME280;20450;49.074;9.158;2024-02-23T06:56:02;98014.63;;;7.04;64.08
34177;BME280;20450;49.074;9.158;2024-02-23T06:58:29;98028.41;;;7.08;62.51
34177;BME280;20450;49.074;9.158;2024-02-23T07:00:56;98018.00;;;7.11;62.80
34177;BME280;20450;49.074;9.158;2024-02-23T07:03:23;98013.22;;;7.13;63.13
34177;BME280;20450;49.074;9.158;2024-02-23T07:05:52;98025.38;;;7.39;64.54
34177;BME280;20450;49.074;9.158;2024-02-23T07:08:19;98023.41;;;7.23;62.51
34177;BME280;20450;49.074;9.158;2024-02-23T07:10:46;98006.94;;;7.42;65.16
34177;BME280;20450;49.074;9.158;2024-02-23T07:13:13;98005.06;;;7.31;63.64
34177;BME280;20450;49.074;9.158;2024-02-23T07:15:40;98004.13;;;7.49;64.65
34177;BME280;20450;49.074;9.158;2024-02-23T07:18:07;98015.56;;;7.67;63.27
34177;BME280;20450;49.074;9.158;2024-02-23T07:20:35;98004.44;;;7.75;62.97
34177;BME280;20450;49.074;9.158;2024-02-23T07:23:07;98014.41;;;7.40;62.54
34177;BME280;20450;49.074;9.158;2024-02-23T07:25:34;98019.91;;;7.45;64.01
34177;BME280;20450;49.074;9.158;2024-02-23T07:28:01;98013.00;;;7.49;62.69
34177;BME280;20450;49.074;9.158;2024-02-23T07:30:28;98012.66;;;7.34;62.79
34177;BME280;20450;49.074;9.158;2024-02-23T07:32:55;98019.91;;;7.45;63.35
34177;BME280;20450;49.074;9.158;2024-02-23T07:35:22;98015.31;;;7.11;63.99
34177;BME280;20450;49.074;9.158;2024-02-23T07:37:49;98009.72;;;7.01;63.88
34177;BME280;20450;49.074;9.158;2024-02-23T07:40:18;98018.22;;;6.98;63.53
34177;BME280;20450;49.074;9.158;2024-02-23T07:42:49;98011.47;;;6.84;63.88
34177;BME280;20450;49.074;9.158;2024-02-23T07:45:17;98016.59;;;6.97;63.99
34177;BME280;20450;49.074;9.158;2024-02-23T07:47:44;98019.88;;;6.99;64.51
34177;BME280;20450;49.074;9.158;2024-02-23T07:50:11;98014.84;;;7.03;64.27
34177;BME280;20450;49.074;9.158;2024-02-23T07:52:38;98014.75;;;7.21;63.19
34177;BME280;20450;49.074;9.158;2024-02-23T07:55:06;98014.41;;;7.40;62.99
34177;BME280;20450;49.074;9.158;2024-02-23T07:57:35;98014.38;;;7.75;63.28
34177;BME280;20450;49.074;9.158;2024-02-23T08:00:03;98014.25;;;7.70;62.15
34177;BME280;20450;49.074;9.158;2024-02-23T08:02:37;98024.03;;;8.67;60.46
34177;BME280;20450;49.074;9.158;2024-02-23T08:05:05;98026.53;;;8.29;60.24
34177;BME280;20450;49.074;9.158;2024-02-23T08:07:32;98022.75;;;8.86;58.56
34177;BME280;20450;49.074;9.158;2024-02-23T08:09:59;98019.41;;;8.79;59.22
34177;BME280;20450;49.074;9.158;2024-02-23T08:12:26;98009.94;;;8.93;59.74
34177;BME280;20450;49.074;9.158;2024-02-23T08:14:55;98014.41;;;9.53;59.00
34177;BME280;20450;49.074;9.158;2024-02-23T08:17:22;98024.31;;;8.82;59.01
34177;BME280;20450;49.074;9.158;2024-02-23T08:19:49;98009.88;;;8.43;61.22
34177;BME280;20450;49.074;9.158;2024-02-23T08:22:16;98019.25;;;7.89;61.51
34177;BME280;20450;49.074;9.158;2024-02-23T08:24:43;98020.75;;;7.97;63.69
34177;BME280;20450;49.074;9.158;2024-02-23T08:27:10;98010.41;;;8.57;61.95
34177;BME280;20450;49.074;9.158;2024-02-23T08:29:40;98022.69;;;8.81;59.96
34177;BME280;20450;49.074;9.158;2024-02-23T08:32:08;98027.81;;;9.48;58.69
34177;BME280;20450;49.074;9.158;2024-02-23T08:34:36;98008.97;;;8.82;60.60
34177;BME280;20450;49.074;9.158;2024-02-23T08:37:03;98013.38;;;8.72;61.91
34177;BME280;20450;49.074;9.158;2024-02-23T08:39:30;98003.41;;;9.05;60.59
34177;BME280;20450;49.074;9.158;2024-02-23T08:41:57;97999.97;;;8.77;61.51
34177;BME280;20450;49.074;9.158;2024-02-23T08:44:24;98000.59;;;8.51;62.31
34177;BME280;20450;49.074;9.158;2024-02-23T08:46:51;97999.16;;;8.60;62.06
34177;BME280;20450;49.074;9.158;2024-02-23T08:49:20;97992.34;;;8.01;64.19
34177;BME280;20450;49.074;9.158;2024-02-23T08:51:47;97986.34;;;8.22;64.19
34177;BME280;20450;49.074;9.158;2024-02-23T08:54:15;97986.22;;;8.45;63.21
34177;BME280;20450;49.074;9.158;2024-02-23T08:56:42;97988.31;;;8.15;63.70
34177;BME280;20450;49.074;9.158;2024-02-23T08:59:09;98005.59;;;8.19;63.44
34177;BME280;20450;49.074;9.158;2024-02-23T09:01:36;98008.34;;;7.96;64.00
34177;BME280;20450;49.074;9.158;2024-02-23T09:04:03;98011.81;;;8.08;65.09
34177;BME280;20450;49.074;9.158;2024-02-23T09:06:32;98016.06;;;8.04;64.99
34177;BME280;20450;49.074;9.158;2024-02-23T09:09:04;98008.59;;;7.94;66.30
34177;BME280;20450;49.074;9.158;2024-02-23T09:11:31;98003.75;;;7.68;66.04
34177;BME280;20450;49.074;9.158;2024-02-23T09:14:00;97995.69;;;7.68;66.00
34177;BME280;20450;49.074;9.158;2024-02-23T09:16:27;98006.78;;;7.60;65.70
34177;BME280;20450;49.074;9.158;2024-02-23T09:18:54;98012.16;;;7.72;65.11
34177;BME280;20450;49.074;9.158;2024-02-23T09:21:21;98008.53;;;7.66;65.67
34177;BME280;20450;49.074;9.158;2024-02-23T09:23:49;98011.06;;;7.84;65.08
34177;BME280;20450;49.074;9.158;2024-02-23T09:26:17;98001.88;;;7.69;65.47
34177;BME280;20450;49.074;9.158;2024-02-23T09:28:44;97999.00;;;7.98;64.31
34177;BME280;20450;49.074;9.158;2024-02-23T09:31:11;97999.50;;;7.95;64.62
34177;BME280;20450;49.074;9.158;2024-02-23T09:33:38;97999.53;;;7.84;63.63
34177;BME280;20450;49.074;9.158;2024-02-23T09:36:05;98005.06;;;8.05;63.89
34177;BME280;20450;49.074;9.158;2024-02-23T09:38:32;98003.28;;;8.11;62.85
34177;BME280;20450;49.074;9.158;2024-02-23T09:41:01;98000.00;;;8.49;61.92
34177;BME280;20450;49.074;9.158;2024-02-23T09:43:29;97997.28;;;8.77;62.50
34177;BME280;20450;49.074;9.158;2024-02-23T09:45:57;98007.91;;;9.00;62.61
34177;BME280;20450;49.074;9.158;2024-02-23T09:48:25;97998.53;;;9.02;61.61
34177;BME280;20450;49.074;9.158;2024-02-23T09:50:52;97997.31;;;9.10;62.04
34177;BME280;20450;49.074;9.158;2024-02-23T09:53:20;98008.06;;;9.43;60.89
34177;BME280;20450;49.074;9.158;2024-02-23T09:55:50;98027.16;;;9.41;60.06
34177;BME280;20450;49.074;9.158;2024-02-23T09:58:20;98016.34;;;9.74;60.50
34177;BME280;20450;49.074;9.158;2024-02-23T10:00:48;98003.28;;;9.66;60.73
34177;BME280;20450;49.074;9.158;2024-02-23T10:03:16;98017.66;;;9.55;60.73
34177;BME280;20450;49.074;9.158;2024-02-23T10:05:44;98018.50;;;9.39;61.02
34177;BME280;20450;49.074;9.158;2024-02-23T10:08:11;98014.38;;;8.54;61.06
34177;BME280;20450;49.074;9.158;2024-02-23T10:10:39;98004.84;;;8.63;62.56
34177;BME280;20450;49.074;9.158;2024-02-23T10:13:06;98023.47;;;8.37;62.81
34177;BME280;20450;49.074;9.158;2024-02-23T10:15:35;98029.31;;;8.34;62.35
34177;BME280;20450;49.074;9.158;2024-02-23T10:18:02;98015.16;;;8.38;61.62
34177;BME280;20450;49.074;9.158;2024-02-23T10:20:31;98017.94;;;8.43;60.83
34177;BME280;20450;49.074;9.158;2024-02-23T10:23:05;98030.16;;;8.34;61.43
34177;BME280;20450;49.074;9.158;2024-02-23T10:25:36;98019.19;;;8.24;61.54
34177;BME280;20450;49.074;9.158;2024-02-23T10:28:04;98024.81;;;8.23;61.86
34177;BME280;20450;49.074;9.158;2024-02-23T10:30:38;98027.25;;;8.52;62.14
34177;BME280;20450;49.074;9.158;2024-02-23T10:33:22;98033.59;;;8.74;60.85
34177;BME280;20450;49.074;9.158;2024-02-23T10:35:56;98043.47;;;8.29;60.77
34177;BME280;20450;49.074;9.158;2024-02-23T10:38:26;98048.53;;;8.14;61.30
34177;BME280;20450;49.074;9.158;2024-02-23T10:40:55;98037.63;;;8.21;61.31
34177;BME280;20450;49.074;9.158;2024-02-23T10:43:29;98046.31;;;8.11;60.92
34177;BME280;20450;49.074;9.158;2024-02-23T10:46:04;98039.41;;;8.15;61.68
34177;BME280;20450;49.074;9.158;2024-02-23T10:48:32;98050.66;;;8.24;60.88
34177;BME280;20450;49.074;9.158;2024-02-23T10:50:59;98045.13;;;8.19;60.71
34177;BME280;20450;49.074;9.158;2024-02-23T10:53:29;98037.97;;;8.64;60.00
34177;BME280;20450;49.074;9.158;2024-02-23T10:55:59;98035.34;;;9.13;58.36
34177;BME280;20450;49.074;9.158;2024-02-23T10:58:27;98046.91;;;9.63;55.92
34177;BME280;20450;49.074;9.158;2024-02-23T11:00:59;98030.94;;;9.07;58.36
34177;BME280;20450;49.074;9.158;2024-02-23T11:03:30;98026.81;;;8.88;59.30
34177;BME280;20450;49.074;9.158;2024-02-23T11:05:59;98035.72;;;8.89;59.72
34177;BME280;20450;49.074;9.158;2024-02-23T11:08:27;98032.41;;;9.15;58.96
34177;BME280;20450;49.074;9.158;2024-02-23T11:10:55;98040.53;;;9.03;57.29
34177;BME280;20450;49.074;9.158;2024-02-23T11:13:30;98035.41;;;8.85;57.71
34177;BME280;20450;49.074;9.158;2024-02-23T11:16:01;98023.88;;;8.90;58.38
34177;BME280;20450;49.074;9.158;2024-02-23T11:18:34;98014.44;;;8.87;58.26
34177;BME280;20450;49.074;9.158;2024-02-23T11:21:05;98018.50;;;9.06;58.08
34177;BME280;20450;49.074;9.158;2024-02-23T11:23:40;98017.84;;;8.83;58.83
34177;BME280;20450;49.074;9.158;2024-02-23T11:26:10;98011.94;;;8.69;59.73
34177;BME280;20450;49.074;9.158;2024-02-23T11:28:43;98021.72;;;8.59;58.83
34177;BME280;20450;49.074;9.158;2024-02-23T11:31:14;98014.22;;;8.61;59.44
34177;BME280;20450;49.074;9.158;2024-02-23T11:33:50;97996.97;;;8.90;59.35
34177;BME280;20450;49.074;9.158;2024-02-23T11:36:23;98005.78;;;9.35;59.43
34177;BME280;20450;49.074;9.158;2024-02-23T11:38:52;98016.00;;;9.71;58.04
34177;BME280;20450;49.074;9.158;2024-02-23T11:41:21;98022.28;;;9.38;57.39
34177;BME280;20450;49.074;9.158;2024-02-23T11:43:50;98014.50;;;9.42;57.87
34177;BME280;20450;49.074;9.158;2024-02-23T11:46:21;97999.97;;;9.43;58.07
34177;BME280;20450;49.074;9.158;2024-02-23T11:48:52;97998.28;;;9.04;57.77
34177;BME280;20450;49.074;9.158;2024-02-23T11:51:20;97997.94;;;9.00;57.92
34177;BME280;20450;49.074;9.158;2024-02-23T11:53:55;97985.38;;;8.89;58.69
34177;BME280;20450;49.074;9.158;2024-02-23T11:56:33;97992.91;;;9.04;58.59
34177;BME280;20450;49.074;9.158;2024-02-23T11:59:01;97984.06;;;8.92;58.12
34177;BME280;20450;49.074;9.158;2024-02-23T12:01:29;97983.69;;;9.00;59.22
34177;BME280;20450;49.074;9.158;2024-02-23T12:03:58;97989.22;;;9.26;57.66
34177;BME280;20450;49.074;9.158;2024-02-23T12:06:27;97977.63;;;9.09;58.96
34177;BME280;20450;49.074;9.158;2024-02-23T12:08:56;97981.38;;;9.25;57.84
34177;BME280;20450;49.074;9.158;2024-02-23T12:11:24;97979.19;;;9.60;56.94
34177;BME280;20450;49.074;9.158;2024-02-23T12:13:51;97968.56;;;9.70;57.39
34177;BME280;20450;49.074;9.158;2024-02-23T12:16:20;97969.69;;;9.74;57.08
34177;BME280;20450;49.074;9.158;2024-02-23T12:18:53;97977.19;;;9.72;56.71
34177;BME280;20450;49.074;9.158;2024-02-23T12:21:23;97971.38;;;9.80;56.24
34177;BME280;20450;49.074;9.158;2024-02-23T12:23:50;97976.88;;;9.90;57.95
34177;BME280;20450;49.074;9.158;2024-02-23T12:26:18;97965.03;;;9.91;57.53
34177;BME280;20450;49.074;9.158;2024-02-23T12:28:47;97986.22;;;9.82;56.28
34177;BME280;20450;49.074;9.158;2024-02-23T12:31:15;97967.59;;;9.81;57.63
34177;BME280;20450;49.074;9.158;2024-02-23T12:33:42;97987.34;;;9.65;56.96
34177;BME280;20450;49.074;9.158;2024-02-23T12:36:10;97989.16;;;9.59;56.64
34177;BME280;20450;49.074;9.158;2024-02-23T12:38:38;97979.41;;;9.37;57.26
34177;BME280;20450;49.074;9.158;2024-02-23T12:41:06;97965.97;;;9.42;57.47
34177;BME280;20450;49.074;9.158;2024-02-23T12:43:33;97969.84;;;9.46;57.68
34177;BME280;20450;49.074;9.158;2024-02-23T12:46:02;97986.56;;;9.48;57.29
34177;BME280;20450;49.074;9.158;2024-02-23T12:48:29;97982.59;;;9.34;56.86
34177;BME280;20450;49.074;9.158;2024-02-23T12:50:56;97965.88;;;9.15;58.27
34177;BME280;20450;49.074;9.158;2024-02-23T12:53:31;97980.44;;;9.36;56.70
34177;BME280;20450;49.074;9.158;2024-02-23T12:56:03;97976.81;;;9.25;56.71
34177;BME280;20450;49.074;9.158;2024-02-23T12:58:31;97990.41;;;9.52;56.80
34177;BME280;20450;49.074;9.158;2024-02-23T13:00:59;97986.75;;;9.25;56.11
34177;BME280;20450;49.074;9.158;2024-02-23T13:03:26;97992.25;;;9.30;56.32
34177;BME280;20450;49.074;9.158;2024-02-23T13:05:54;97986.59;;;9.31;56.45
34177;BME280;20450;49.074;9.158;2024-02-23T13:08:22;97983.09;;;9.31;57.47
34177;BME280;20450;49.074;9.158;2024-02-23T13:10:51;97980.16;;;9.32;57.21
34177;BME280;20450;49.074;9.158;2024-02-23T13:13:21;97981.78;;;9.33;58.42
34177;BME280;20450;49.074;9.158;2024-02-23T13:15:51;97981.78;;;9.17;57.95